Tullahoma, TN

3:18 AM CDT en Septiembre 23, 2014 (GMT -0500)
tullahoma tenn | Change Station
CLOSE
Current Station
Estación meteorológica personal
Location: Tullahoma, TN
Altura: 1083 ft
Estaciones meteorológicas cercanas

Alt 1083 ft 35.36 °N, 86.23 °W | Updated 9 minutes ago

Despejado
Despejado
48.6 ° F
Sensación térmica 49 ° F
N
0.0
Viento Variable Viento desde Oeste

Hoy
Alta -- | Baja -- ° F
--% Posibilidad de precipitaciones
Ayer
Alta -- | Baja -- ° F
Precip. -- pul
6:33 AM 6:40 PM
Creciente menguante, 1% visible
Presión 30.20 pul
Visibilidad 10.0 Millas
Nubes Despejado
Vientos helados 49 ° F
Punto de rocío 45 ° F
Humedad 86%
Precipitaciones 0.00 pul
Espesor de la nieve No disponible.
UV 0 de una escala de 12
Polen 7.50 de una escala de 12
Calidad del aire No disponible.
Flu Activity No disponible.
METAR KTHA 230755Z AUTO 04004KT 10SM CLR 11/07 A3020 RMK

More Conditions Fewer Conditions

Presión 30.20 pul
Visibilidad 10.0 Millas
Nubes Despejado
Vientos helados 49 ° F
Punto de rocío 45 ° F
Humedad 86%
Precipitaciones 0.00 pul
Espesor de la nieve No disponible.
UV 0 de una escala de 12
Polen 7.50 de una escala de 12
Calidad del aire No disponible.
Flu Activity No disponible.
METAR KTHA 230755Z AUTO 04004KT 10SM CLR 11/07 A3020 RMK

More Conditions Fewer Conditions

10-Day Weather Forecast

Almanac

Astronomía

Sep. 23, 2014 Salida Puesta
Hora real 6:33 AM CDT 6:40 PM CDT
Crepúsculo civil 6:08 AM CDT 7:05 PM CDT
Crepúsculo náutico 5:38 AM CDT 7:35 PM CDT
Crepúsculo astronómico 5:08 AM CDT 8:05 PM CDT
Luna 5:57 AM CDT 6:19 PM CDT
Horas de luz 12h 57m
Horas de luz
12h 06m
Tomorrow will be 2m 12s shorter.
Creciente menguante, 1% of the Moon is Illuminated
Hoy
Creciente menguante
Sep 24
Nueva
Oct 1
Cuarto creciente
Oct 8
Luna llena
Oct 15
Cuarto menguante

Extremos de hoy

Máximos del estado Bajos del estado

Community

WunderPhotos

Upload Photos

1,755,608 ¡fotos cargadas!

Nearby

Grosos de nieve

Estación Profundido Altura
No tenemos constancia de nieve nueva.

Actividad de terremotos

Ciudad Distance Mag. Tiempo y dato
Sweetwater, Tennessee 103 Millas 2.5 2:54 PM CDT
2014-09-20
Magnitud mínima muestra es 2,5.

Temperaturas de aguas costeras

Lugar Temperatura
Sin partes meteorológicos de las estaciones

Estaciones meteorológicas cercanas